Time;durP1;ratioP1;P1;durP2;ratioP2;P2;SDS_P1;SDS_P2;PMS_P1;PMS_P2;Temp;Humidity;BMP_temperature;BMP_pressure;BME280_temperature;BME280_humidity;BME280_pressure;Samples;Min_cycle;Max_cycle;Signal;HPM_P1;HPM_P2
2021/01/10 00:05:13;;;;;;;27.13;17.02;;;;;;;-1.49;86.20;99953.58;493267;1145;65200;-55
2021/01/10 00:15:19;;;;;;;23.77;16.17;;;;;;;-1.40;86.62;99961.20;492925;1144;65156;-55
2021/01/10 00:25:24;;;;;;;23.37;13.97;;;;;;;-1.33;85.82;99972.30;493211;1144;65554;-58
2021/01/10 00:35:30;;;;;;;27.23;15.97;;;;;;;-1.30;85.80;99969.72;492477;1144;65370;-57
2021/01/10 00:45:34;;;;;;;;;;;;;;;-1.30;85.44;99982.59;492940;1145;65187;-55
2021/01/10 00:55:38;;;;;;;25.57;15.77;;;;;;;-1.34;85.89;99999.80;493498;1145;65141;-57
2021/01/10 01:05:42;;;;;;;26.67;17.67;;;;;;;-1.35;85.80;99998.09;493272;1144;65452;-55
2021/01/10 01:15:50;;;;;;;24.73;16.00;;;;;;;-1.38;85.87;99992.11;493058;1145;65159;-57
2021/01/10 01:25:58;;;;;;;27.07;15.37;;;;;;;-1.35;85.94;100000.67;493345;1145;66202;-54
2021/01/10 01:36:03;;;;;;;25.80;16.65;;;;;;;-1.36;85.70;99998.97;492834;1145;65545;-57
2021/01/10 01:46:09;;;;;;;28.70;16.70;;;;;;;-1.36;85.90;99996.39;492821;1145;65190;-54
2021/01/10 01:56:13;;;;;;;29.20;18.00;;;;;;;-1.35;85.25;99985.22;493644;1144;65130;-58
2021/01/10 02:06:23;;;;;;;31.00;18.40;;;;;;;-1.33;85.08;99993.78;493106;1145;65116;-62
2021/01/10 02:16:27;;;;;;;28.73;16.43;;;;;;;-1.41;85.22;100000.70;492862;1145;65119;-55
2021/01/10 02:26:32;;;;;;;29.50;17.75;;;;;;;-1.49;85.38;100003.35;492997;1144;65213;-56
2021/01/10 02:36:58;;;;;;;27.50;17.00;;;;;;;-1.58;85.22;100003.41;492668;1144;65133;-55
2021/01/10 02:47:02;;;;;;;28.93;16.60;;;;;;;-1.61;86.02;100017.20;493661;1145;65123;-54
2021/01/10 02:57:15;;;;;;;28.03;14.33;;;;;;;-1.64;86.29;100006.05;493832;1145;65666;-57
2021/01/10 03:07:20;;;;;;;21.27;13.20;;;;;;;-1.61;85.42;100006.89;493372;1145;65200;-54
2021/01/10 03:17:32;;;;;;;22.57;14.53;;;;;;;-1.47;86.35;99995.63;493685;1145;65159;-51
2021/01/10 03:27:39;;;;;;;24.45;15.30;;;;;;;-1.46;85.18;100000.74;494097;1144;65564;-54
2021/01/10 03:37:44;;;;;;;20.05;11.90;;;;;;;-1.47;86.14;99996.46;493521;1143;65136;-55
2021/01/10 03:47:48;;;;;;;20.67;13.80;;;;;;;-1.43;85.22;99993.02;493691;1144;65127;-52
2021/01/10 03:57:52;;;;;;;16.43;11.70;;;;;;;-1.39;85.69;99996.39;492796;1144;65182;-51
2021/01/10 04:07:56;;;;;;;18.73;12.03;;;;;;;-1.39;86.08;100005.86;492900;1146;65179;-52
2021/01/10 04:18:03;;;;;;;24.07;14.97;;;;;;;-1.35;85.38;100003.25;492933;1145;65105;-52
2021/01/10 04:28:07;;;;;;;22.53;14.50;;;;;;;-1.29;86.06;100013.48;493097;1145;65558;-52
2021/01/10 04:38:12;;;;;;;21.17;12.60;;;;;;;-1.27;85.52;100013.48;492877;1145;65127;-53
2021/01/10 04:48:16;;;;;;;22.00;13.50;;;;;;;-1.21;85.73;100007.42;493140;1145;65702;-55
2021/01/10 04:58:28;;;;;;;19.13;12.80;;;;;;;-1.24;85.54;100013.45;493241;1145;65168;-55
2021/01/10 05:08:33;;;;;;;18.20;12.33;;;;;;;-1.25;84.95;100016.06;493910;1145;65130;-52
2021/01/10 05:18:54;;;;;;;23.77;15.70;;;;;;;-1.34;85.13;100020.41;492896;1145;65421;-52
2021/01/10 05:29:04;;;;;;;23.87;15.33;;;;;;;-1.39;85.51;100027.31;493789;1147;65145;-57
2021/01/10 05:39:22;;;;;;;25.73;15.00;;;;;;;-1.41;85.99;100031.62;493028;1147;65548;-50
2021/01/10 05:49:29;;;;;;;27.77;17.13;;;;;;;-1.46;86.28;100038.55;492810;1146;65121;-55
2021/01/10 05:59:39;;;;;;;25.07;15.63;;;;;;;-1.43;85.46;100044.53;492868;1146;65454;-56
2021/01/10 06:09:47;;;;;;;22.95;15.70;;;;;;;-1.34;85.43;100059.06;493605;1147;65103;-55
2021/01/10 06:19:53;;;;;;;26.20;18.70;;;;;;;-1.30;85.88;100068.47;493417;1144;65124;-57
2021/01/10 06:30:00;;;;;;;29.53;17.97;;;;;;;-1.29;85.71;100071.91;493757;1145;65181;-55
2021/01/10 06:40:18;;;;;;;25.57;15.60;;;;;;;-1.34;85.66;100083.95;493925;1145;65153;-53
2021/01/10 06:50:24;;;;;;;29.05;17.25;;;;;;;-1.36;86.33;100096.88;493525;1145;65478;-58
2021/01/10 07:00:55;;;;;;;24.67;13.73;;;;;;;-1.35;86.33;100101.16;493467;1142;65120;-57
2021/01/10 07:11:31;;;;;;;27.53;15.83;;;;;;;-1.32;86.01;100106.28;493479;1145;66661;-57
2021/01/10 07:21:41;;;;;;;27.60;18.07;;;;;;;-1.27;85.60;100101.09;493185;1144;65296;-55
2021/01/10 07:31:56;;;;;;;28.93;19.23;;;;;;;-1.23;86.00;100115.66;493643;1145;65111;-59
2021/01/10 07:42:18;;;;;;;28.73;16.73;;;;;;;-1.20;85.51;100125.09;493878;1144;65184;-58
2021/01/10 07:52:53;;;;;;;32.60;19.17;;;;;;;-1.16;85.99;100126.77;493144;1145;65146;-60
2021/01/10 08:02:59;;;;;;;27.33;16.27;;;;;;;-1.09;85.91;100140.50;484292;1144;10001909;-58
2021/01/10 08:13:03;;;;;;;26.85;16.73;;;;;;;-0.99;85.54;100145.56;492264;1144;65165;-63
2021/01/10 08:23:10;;;;;;;28.10;16.47;;;;;;;-0.83;85.52;100145.44;492420;1144;65150;-63
2021/01/10 08:33:20;;;;;;;28.33;16.77;;;;;;;-0.68;85.31;100149.61;492852;1144;65121;-62
2021/01/10 08:43:28;;;;;;;31.13;18.77;;;;;;;-0.65;85.78;100157.31;492977;1144;65262;-64
2021/01/10 08:53:45;;;;;;;27.03;14.30;;;;;;;-0.50;85.78;100164.06;492550;1144;65660;-62
2021/01/10 09:04:04;;;;;;;31.73;18.50;;;;;;;-0.34;85.36;100167.36;493120;1145;65118;-61
2021/01/10 09:14:12;;;;;;;29.00;17.37;;;;;;;-0.20;85.39;100168.94;493339;1144;65089;-59
2021/01/10 09:24:16;;;;;;;24.27;15.73;;;;;;;-0.10;84.62;100177.47;492696;1142;65198;-61
2021/01/10 09:34:27;;;;;;;32.80;18.13;;;;;;;-0.17;84.95;100177.52;492429;1144;65585;-59
2021/01/10 09:44:32;;;;;;;30.03;16.87;;;;;;;-0.10;84.55;100177.47;491933;1144;65280;-58
2021/01/10 09:54:39;;;;;;;29.93;17.60;;;;;;;0.10;84.09;100174.66;492229;1145;65213;-60
2021/01/10 10:04:47;;;;;;;;;;;;;;;0.33;83.63;100173.52;492699;1144;65659;-60
2021/01/10 10:14:59;;;;;;;27.60;16.65;;;;;;;0.20;83.93;100173.67;492264;1145;65140;-60
2021/01/10 10:25:06;;;;;;;32.27;21.03;;;;;;;0.35;84.19;100167.47;492876;1144;65146;-61
2021/01/10 10:35:14;;;;;;;29.50;18.35;;;;;;;0.56;84.08;100162.87;493003;1144;65880;-62
2021/01/10 10:45:18;;;;;;;32.93;17.50;;;;;;;0.81;83.42;100153.05;493279;1144;65190;-61
2021/01/10 10:55:25;;;;;;;26.70;17.83;;;;;;;1.10;83.71;100151.77;492865;1144;66275;-63
2021/01/10 11:05:30;;;;;;;24.60;15.20;;;;;;;1.26;82.91;100138.56;493216;1144;65392;-60
2021/01/10 11:15:34;;;;;;;26.77;15.03;;;;;;;1.39;82.24;100128.87;492207;1144;65212;-60
2021/01/10 11:25:38;;;;;;;24.83;15.57;;;;;;;1.42;82.39;100131.39;492050;1146;65432;-62
2021/01/10 11:35:42;;;;;;;23.37;14.17;;;;;;;1.18;82.26;100127.48;492338;1144;65554;-60
2021/01/10 11:45:46;;;;;;;23.47;14.70;;;;;;;1.21;82.21;100142.95;492889;1144;65142;-61
2021/01/10 11:55:51;;;;;;;20.50;13.13;;;;;;;1.09;81.84;100134.51;493512;1144;65146;-59
2021/01/10 12:05:55;;;;;;;25.17;14.83;;;;;;;0.93;81.82;100133.92;492776;1144;65123;-60
2021/01/10 12:16:00;;;;;;;29.10;19.17;;;;;;;1.04;81.73;100140.63;492900;1144;65201;-61
2021/01/10 12:26:08;;;;;;;28.00;19.53;;;;;;;1.35;81.94;100135.83;492794;1144;65120;-60
2021/01/10 12:36:15;;;;;;;29.85;17.75;;;;;;;1.48;81.52;100135.61;492856;1144;65507;-59
2021/01/10 12:46:31;;;;;;;23.50;15.95;;;;;;;1.37;81.53;100146.13;493415;1145;65119;-60
2021/01/10 12:56:35;;;;;;;28.53;18.83;;;;;;;0.97;81.61;100135.57;492468;1144;65210;-60
2021/01/10 13:06:40;;;;;;;30.23;18.17;;;;;;;1.00;81.75;100129.51;493915;1144;65214;-60
2021/01/10 13:16:50;;;;;;;37.70;22.33;;;;;;;1.10;81.25;100112.09;495651;1144;65345;-60
2021/01/10 13:26:55;;;;;;;37.40;24.25;;;;;;;1.21;81.49;100117.08;492492;1145;65143;-59
2021/01/10 13:37:02;;;;;;;37.00;21.52;;;;;;;1.14;81.01;100120.66;492569;1144;65149;-59
2021/01/10 13:47:06;;;;;;;43.67;25.33;;;;;;;0.96;81.09;100120.94;492546;1144;65603;-60
2021/01/10 13:57:11;;;;;;;37.80;24.13;;;;;;;0.91;81.64;100129.64;492380;1144;65260;-60
2021/01/10 14:07:21;;;;;;;38.77;23.87;;;;;;;0.77;80.91;100130.72;492227;1144;65114;-59
2021/01/10 14:17:25;;;;;;;55.90;28.37;;;;;;;0.73;81.26;100133.37;492878;1143;65207;-61
2021/01/10 14:27:30;;;;;;;44.80;25.00;;;;;;;0.51;81.53;100147.42;493433;1144;65175;-64
2021/01/10 14:37:34;;;;;;;42.73;24.00;;;;;;;0.35;81.83;100145.94;492569;1144;65542;-60
2021/01/10 14:47:38;;;;;;;41.70;25.25;;;;;;;0.27;81.54;100140.88;493239;1145;65150;-60
2021/01/10 14:57:43;;;;;;;54.47;31.83;;;;;;;0.24;82.48;100146.92;492366;1144;65835;-60
2021/01/10 15:07:47;;;;;;;48.77;29.63;;;;;;;0.20;81.94;100153.02;493460;1144;65199;-59
2021/01/10 15:17:51;;;;;;;48.63;28.77;;;;;;;-0.05;82.62;100162.77;493454;1144;65136;-59
2021/01/10 15:27:55;;;;;;;45.23;28.50;;;;;;;-0.11;81.95;100161.11;492487;1144;65191;-59
2021/01/10 15:38:06;;;;;;;45.43;26.87;;;;;;;-0.01;82.48;100159.27;493043;1144;65133;-64
2021/01/10 15:48:11;;;;;;;39.10;22.50;;;;;;;-0.05;83.26;100168.80;493185;1144;65448;-59
2021/01/10 15:58:18;;;;;;;36.30;23.80;;;;;;;-0.19;82.29;100166.35;492747;1144;65114;-60
2021/01/10 16:08:22;;;;;;;37.73;25.43;;;;;;;-0.16;82.45;100175.80;492403;1145;65221;-59
2021/01/10 16:18:27;;;;;;;41.10;26.03;;;;;;;-0.13;83.61;100172.31;492454;1144;65210;-59
2021/01/10 16:28:34;;;;;;;50.37;28.70;;;;;;;-0.18;83.21;100167.19;492967;1142;65162;-59
2021/01/10 16:38:39;;;;;;;58.47;33.77;;;;;;;-0.19;82.51;100165.48;493207;1144;65501;-60
2021/01/10 16:48:45;;;;;;;52.57;34.23;;;;;;;-0.23;82.67;100163.81;493100;1144;65170;-59
2021/01/10 16:58:49;;;;;;;46.40;30.43;;;;;;;-0.27;83.73;100160.41;492513;1144;65216;-59
2021/01/10 17:08:54;;;;;;;54.05;33.20;;;;;;;-0.32;84.04;100157.88;492951;1144;65462;-60
2021/01/10 17:18:58;;;;;;;52.47;36.63;;;;;;;-0.34;83.66;100146.71;492961;1144;65207;-59
2021/01/10 17:29:02;;;;;;;77.35;46.15;;;;;;;-0.36;84.09;100150.17;493248;1144;65159;-60
2021/01/10 17:39:07;;;;;;;66.10;44.60;;;;;;;-0.44;82.98;100139.93;493297;1144;65188;-59
2021/01/10 17:49:11;;;;;;;67.80;41.37;;;;;;;-0.44;83.47;100150.25;493073;1144;65116;-58
2021/01/10 17:59:16;;;;;;;59.17;37.13;;;;;;;-0.39;83.46;100148.50;492229;1144;65567;-60
2021/01/10 18:09:20;;;;;;;62.30;38.10;;;;;;;-0.35;83.47;100155.33;492412;1144;65114;-59
2021/01/10 18:19:25;;;;;;;59.10;35.37;;;;;;;-0.37;83.56;100151.05;492351;1142;65156;-66
2021/01/10 18:29:32;;;;;;;68.80;40.35;;;;;;;-0.33;83.66;100142.42;492803;1144;65661;-65
2021/01/10 18:39:36;;;;;;;61.37;37.97;;;;;;;-0.48;83.68;100139.10;492559;1144;65770;-66
2021/01/10 18:49:42;;;;;;;77.95;41.25;;;;;;;-0.73;83.65;100134.17;493088;1144;65209;-66
2021/01/10 18:59:54;;;;;;;70.80;43.03;;;;;;;-0.74;84.65;100140.20;492993;1144;65194;-67
2021/01/10 19:09:58;;;;;;;85.40;48.33;;;;;;;-0.69;84.03;100142.75;492593;1142;65212;-65
2021/01/10 19:20:02;;;;;;;77.60;49.95;;;;;;;-0.61;84.40;100145.25;492935;1144;65222;-65
2021/01/10 19:30:10;;;;;;;82.33;49.27;;;;;;;-0.73;83.84;100141.07;492813;1144;65137;-64
2021/01/10 19:40:15;;;;;;;88.67;51.23;;;;;;;-0.72;84.74;100138.45;493045;1145;65213;-66
2021/01/10 19:50:19;;;;;;;90.83;49.47;;;;;;;-0.66;84.31;100154.77;493468;1144;65119;-66
2021/01/10 20:00:23;;;;;;;96.13;58.60;;;;;;;-0.73;83.89;100154.80;492628;1144;65478;-65
2021/01/10 20:10:27;;;;;;;78.50;47.10;;;;;;;-0.79;84.34;100156.59;492646;1144;65561;-64
2021/01/10 20:20:34;;;;;;;90.97;52.83;;;;;;;-0.80;84.24;100154.88;493338;1144;65142;-65
2021/01/10 20:30:41;;;;;;;86.97;53.63;;;;;;;-0.74;84.33;100139.37;492674;1144;65162;-64
2021/01/10 20:40:45;;;;;;;86.77;50.80;;;;;;;-0.57;84.70;100134.89;493122;1145;65119;-64
2021/01/10 20:50:51;;;;;;;60.17;36.40;;;;;;;-0.47;84.34;100125.33;493138;1144;65128;-64
2021/01/10 21:00:55;;;;;;;66.00;38.08;;;;;;;-0.49;83.92;100116.75;493009;1144;65182;-64
2021/01/10 21:11:00;;;;;;;60.30;37.55;;;;;;;-0.58;84.48;100107.39;493205;1144;65877;-64
2021/01/10 21:21:04;;;;;;;65.37;41.00;;;;;;;-0.72;84.09;100114.41;493237;1144;65212;-63
2021/01/10 21:31:08;;;;;;;67.40;41.95;;;;;;;-0.72;84.52;100112.67;493008;1144;65118;-64
2021/01/10 21:41:18;;;;;;;85.03;49.50;;;;;;;-0.81;84.38;100105.01;493201;1144;65118;-66
2021/01/10 21:51:23;;;;;;;77.57;48.30;;;;;;;-0.94;84.47;100105.98;492617;1144;65191;-64
2021/01/10 22:01:28;;;;;;;75.37;46.77;;;;;;;-0.89;84.35;100110.23;492748;1144;65714;-64
2021/01/10 22:11:32;;;;;;;80.60;45.33;;;;;;;-0.78;85.36;100111.87;492562;1145;65484;-64
2021/01/10 22:21:44;;;;;;;78.23;48.07;;;;;;;-0.73;84.73;100094.65;492960;1144;65130;-62
2021/01/10 22:31:47;;;;;;;102.23;55.20;;;;;;;-0.71;85.02;100095.48;493188;1144;65145;-63
2021/01/10 22:41:52;;;;;;;76.23;43.13;;;;;;;-0.72;84.76;100094.62;492843;1144;65227;-64
2021/01/10 22:51:56;;;;;;;81.15;46.50;;;;;;;-0.63;85.35;100101.44;492425;1145;65611;-64
2021/01/10 23:02:00;;;;;;;111.70;56.60;;;;;;;-0.58;84.86;100088.46;492901;1144;65596;-65
2021/01/10 23:12:08;;;;;;;68.50;39.07;;;;;;;-0.57;83.82;100087.63;492965;1146;65257;-63
2021/01/10 23:22:15;;;;;;;66.07;39.50;;;;;;;-0.55;84.16;100072.97;492603;1144;65115;-63
2021/01/10 23:32:18;;;;;;;;;;;;;;;-0.55;85.06;100061.78;492488;1144;65206;-64
2021/01/10 23:42:22;;;;;;;55.23;32.27;;;;;;;-0.45;83.89;100059.11;492721;1144;65207;-64
2021/01/10 23:52:26;;;;;;;62.30;33.00;;;;;;;-0.35;85.06;100051.23;492916;1145;65371;-62
